createdAt,value
2023-09-30T00:03:35.627Z,20.69
2023-09-30T00:14:00.209Z,20.63
2023-09-30T00:24:24.090Z,20.47
2023-09-30T00:34:48.552Z,20.32
2023-09-30T00:45:13.615Z,20.26
2023-09-30T00:55:38.229Z,20.16
2023-09-30T01:06:02.712Z,20.07
2023-09-30T01:16:26.697Z,19.91
2023-09-30T01:26:50.668Z,19.80
2023-09-30T01:37:15.018Z,19.70
2023-09-30T01:47:40.191Z,19.54
2023-09-30T01:58:04.331Z,19.38
2023-09-30T02:08:28.768Z,19.22
2023-09-30T02:18:53.446Z,19.00
2023-09-30T02:29:17.265Z,18.75
2023-09-30T02:39:42.071Z,18.60
2023-09-30T02:50:09.856Z,18.59
2023-09-30T03:00:37.067Z,18.53
2023-09-30T03:11:01.597Z,18.53
2023-09-30T03:21:25.678Z,18.49
2023-09-30T03:31:49.357Z,18.45
2023-09-30T03:42:14.043Z,18.39
2023-09-30T03:52:38.576Z,18.22
2023-09-30T04:03:04.240Z,17.92
2023-09-30T04:13:30.851Z,17.46
2023-09-30T04:23:55.710Z,17.13
2023-09-30T04:34:20.521Z,16.87
2023-09-30T04:44:45.259Z,16.67
2023-09-30T04:55:10.439Z,16.46
2023-09-30T05:05:35.701Z,16.26
2023-09-30T05:16:00.700Z,15.91
2023-09-30T05:26:24.971Z,15.59
2023-09-30T05:36:49.960Z,15.41
2023-09-30T05:47:17.077Z,15.31
2023-09-30T05:57:41.911Z,15.06
2023-09-30T06:08:06.514Z,14.74
2023-09-30T06:18:31.122Z,14.52
2023-09-30T06:28:57.533Z,14.31
2023-09-30T06:39:21.493Z,14.13
2023-09-30T06:49:46.750Z,13.93
2023-09-30T07:00:13.447Z,13.91
2023-09-30T07:10:38.155Z,14.05
2023-09-30T07:21:03.093Z,14.20
2023-09-30T07:31:28.737Z,14.30
2023-09-30T07:41:52.353Z,14.60
2023-09-30T07:52:17.034Z,14.62
2023-09-30T08:02:42.085Z,14.69
2023-09-30T08:13:06.991Z,14.89
2023-09-30T08:23:32.461Z,15.01
2023-09-30T08:33:56.822Z,15.34
2023-09-30T08:44:21.012Z,15.38
2023-09-30T08:54:45.516Z,15.49
2023-09-30T09:05:12.028Z,15.83
2023-09-30T09:15:36.445Z,16.08
2023-09-30T09:26:01.302Z,16.10
2023-09-30T09:36:50.055Z,16.15
2023-09-30T09:47:15.784Z,16.24
2023-09-30T09:57:42.149Z,16.73
2023-09-30T10:08:17.381Z,17.00
2023-09-30T10:19:14.284Z,17.04
2023-09-30T10:29:45.357Z,16.91
2023-09-30T10:40:11.004Z,17.14
2023-09-30T10:50:52.353Z,17.18
2023-09-30T11:01:22.869Z,17.30
2023-09-30T11:11:52.134Z,17.59
2023-09-30T11:22:17.323Z,17.66
2023-09-30T11:32:44.099Z,17.62
2023-09-30T11:43:13.877Z,17.77
2023-09-30T11:53:38.571Z,18.21
2023-09-30T12:04:03.439Z,18.85
2023-09-30T12:14:28.169Z,19.33
2023-09-30T12:24:53.565Z,19.65
2023-09-30T12:35:18.021Z,19.46
2023-09-30T12:45:43.162Z,19.07
2023-09-30T12:56:07.604Z,18.97
2023-09-30T13:06:34.129Z,19.44
2023-09-30T13:16:59.386Z,19.68
2023-09-30T13:27:23.867Z,19.82
2023-09-30T13:37:48.423Z,20.00
2023-09-30T13:48:13.138Z,19.93
2023-09-30T13:58:37.402Z,19.66
2023-09-30T14:09:01.998Z,19.17
2023-09-30T14:19:26.693Z,19.04
2023-09-30T14:29:50.583Z,18.68
2023-09-30T14:40:15.524Z,18.77
2023-09-30T14:50:49.511Z,19.31
2023-09-30T15:01:14.599Z,19.82
2023-09-30T15:11:40.722Z,20.09
2023-09-30T15:22:05.589Z,20.29
2023-09-30T15:32:29.724Z,20.13
2023-09-30T15:42:54.496Z,19.79
2023-09-30T15:53:20.171Z,19.21
2023-09-30T16:03:45.082Z,18.50
2023-09-30T16:14:10.527Z,18.03
2023-09-30T16:24:35.245Z,17.58
2023-09-30T16:34:59.261Z,17.11
2023-09-30T16:45:26.206Z,16.59
2023-09-30T16:55:52.909Z,16.08
2023-09-30T17:06:17.802Z,15.63
2023-09-30T17:16:42.399Z,15.32
2023-09-30T17:27:06.897Z,15.18
2023-09-30T17:37:31.033Z,15.04
2023-09-30T17:47:55.845Z,14.91
2023-09-30T17:58:20.541Z,14.80
2023-09-30T18:08:47.743Z,14.61
2023-09-30T18:19:13.279Z,14.47
2023-09-30T18:29:38.020Z,14.51
2023-09-30T18:40:02.368Z,14.42
2023-09-30T18:50:27.200Z,14.24
2023-09-30T19:00:52.630Z,14.08
2023-09-30T19:11:18.641Z,14.01
2023-09-30T19:21:43.611Z,13.92
2023-09-30T19:32:10.611Z,13.88
2023-09-30T19:42:34.959Z,13.90
2023-09-30T19:52:58.944Z,13.82
2023-09-30T20:03:26.611Z,13.69
2023-09-30T20:13:51.406Z,13.58
2023-09-30T20:24:15.887Z,13.44
2023-09-30T20:34:40.701Z,13.13
2023-09-30T20:45:05.293Z,12.86
2023-09-30T20:55:37.752Z,12.74
2023-09-30T21:06:07.323Z,12.73
2023-09-30T21:16:31.557Z,12.76
2023-09-30T21:26:56.134Z,12.76
2023-09-30T21:37:20.930Z,12.66
2023-09-30T21:47:44.922Z,12.54
2023-09-30T21:58:09.484Z,12.40
2023-09-30T22:08:33.805Z,12.26
2023-09-30T22:18:58.905Z,12.10
2023-09-30T22:29:24.438Z,11.97
2023-09-30T22:39:48.994Z,11.72
2023-09-30T22:50:14.566Z,11.64
2023-09-30T23:00:41.453Z,11.64
2023-09-30T23:11:12.942Z,11.62
2023-09-30T23:21:38.002Z,11.58
2023-09-30T23:32:03.034Z,11.45
2023-09-30T23:42:27.432Z,11.29
2023-09-30T23:52:53.035Z,11.16
